sensor_id;sensor_type;location;lat;lon;timestamp;P1;durP1;ratioP1;P2;durP2;ratioP2
9178;SDS011;4624;48.126;11.546;2022-08-01T00:01:44;1.20;;;1.10;;
9178;SDS011;4624;48.126;11.546;2022-08-01T00:04:11;1.13;;;1.03;;
9178;SDS011;4624;48.126;11.546;2022-08-01T00:06:39;3.40;;;1.20;;
9178;SDS011;4624;48.126;11.546;2022-08-01T00:09:06;1.40;;;1.20;;
9178;SDS011;4624;48.126;11.546;2022-08-01T00:11:33;2.50;;;1.10;;
9178;SDS011;4624;48.126;11.546;2022-08-01T00:13:59;1.83;;;1.10;;
9178;SDS011;4624;48.126;11.546;2022-08-01T00:16:26;1.63;;;1.13;;
9178;SDS011;4624;48.126;11.546;2022-08-01T00:18:53;1.50;;;1.40;;
9178;SDS011;4624;48.126;11.546;2022-08-01T00:21:20;1.40;;;1.07;;
9178;SDS011;4624;48.126;11.546;2022-08-01T00:23:49;1.53;;;1.00;;
9178;SDS011;4624;48.126;11.546;2022-08-01T00:26:15;2.27;;;1.03;;
9178;SDS011;4624;48.126;11.546;2022-08-01T00:28:42;1.43;;;0.90;;
9178;SDS011;4624;48.126;11.546;2022-08-01T00:31:09;1.17;;;1.10;;
9178;SDS011;4624;48.126;11.546;2022-08-01T00:33:36;2.67;;;0.90;;
9178;SDS011;4624;48.126;11.546;2022-08-01T00:36:03;1.20;;;1.10;;
9178;SDS011;4624;48.126;11.546;2022-08-01T00:38:29;0.90;;;0.90;;
9178;SDS011;4624;48.126;11.546;2022-08-01T00:40:58;1.33;;;1.23;;
9178;SDS011;4624;48.126;11.546;2022-08-01T00:43:24;0.97;;;0.90;;
9178;SDS011;4624;48.126;11.546;2022-08-01T00:45:51;1.40;;;1.27;;
9178;SDS011;4624;48.126;11.546;2022-08-01T00:48:18;1.10;;;1.00;;
9178;SDS011;4624;48.126;11.546;2022-08-01T00:50:45;1.47;;;1.20;;
9178;SDS011;4624;48.126;11.546;2022-08-01T00:53:12;1.00;;;1.00;;
9178;SDS011;4624;48.126;11.546;2022-08-01T00:55:39;1.53;;;1.27;;
9178;SDS011;4624;48.126;11.546;2022-08-01T00:58:07;1.30;;;1.20;;
9178;SDS011;4624;48.126;11.546;2022-08-01T01:00:35;1.13;;;1.10;;
9178;SDS011;4624;48.126;11.546;2022-08-01T01:03:02;1.13;;;1.13;;
9178;SDS011;4624;48.126;11.546;2022-08-01T01:05:29;1.03;;;0.93;;
9178;SDS011;4624;48.126;11.546;2022-08-01T01:08:02;2.17;;;1.20;;
9178;SDS011;4624;48.126;11.546;2022-08-01T01:10:35;1.60;;;1.07;;
9178;SDS011;4624;48.126;11.546;2022-08-01T01:13:10;1.13;;;0.80;;
9178;SDS011;4624;48.126;11.546;2022-08-01T01:15:45;1.73;;;1.10;;
9178;SDS011;4624;48.126;11.546;2022-08-01T01:18:14;0.83;;;0.83;;
9178;SDS011;4624;48.126;11.546;2022-08-01T01:20:48;1.23;;;1.13;;
9178;SDS011;4624;48.126;11.546;2022-08-01T01:23:24;1.20;;;1.10;;
9178;SDS011;4624;48.126;11.546;2022-08-01T01:26:13;3.10;;;1.20;;
9178;SDS011;4624;48.126;11.546;2022-08-01T01:28:57;1.57;;;1.30;;
9178;SDS011;4624;48.126;11.546;2022-08-01T01:31:27;3.10;;;1.10;;
9178;SDS011;4624;48.126;11.546;2022-08-01T01:33:57;1.03;;;1.03;;
9178;SDS011;4624;48.126;11.546;2022-08-01T01:36:25;1.70;;;1.13;;
9178;SDS011;4624;48.126;11.546;2022-08-01T01:38:53;1.80;;;1.10;;
9178;SDS011;4624;48.126;11.546;2022-08-01T01:41:21;1.40;;;1.10;;
9178;SDS011;4624;48.126;11.546;2022-08-01T01:43:49;1.57;;;1.00;;
9178;SDS011;4624;48.126;11.546;2022-08-01T01:46:21;2.67;;;1.10;;
9178;SDS011;4624;48.126;11.546;2022-08-01T01:48:51;0.97;;;0.97;;
9178;SDS011;4624;48.126;11.546;2022-08-01T01:51:21;1.67;;;1.03;;
9178;SDS011;4624;48.126;11.546;2022-08-01T01:53:50;1.47;;;0.93;;
9178;SDS011;4624;48.126;11.546;2022-08-01T01:56:19;1.00;;;1.00;;
9178;SDS011;4624;48.126;11.546;2022-08-01T01:58:48;2.00;;;1.20;;
9178;SDS011;4624;48.126;11.546;2022-08-01T02:01:18;1.23;;;1.00;;
9178;SDS011;4624;48.126;11.546;2022-08-01T02:03:46;1.10;;;1.00;;
9178;SDS011;4624;48.126;11.546;2022-08-01T02:06:15;1.90;;;1.30;;
9178;SDS011;4624;48.126;11.546;2022-08-01T02:08:42;1.33;;;1.20;;
9178;SDS011;4624;48.126;11.546;2022-08-01T02:11:11;1.10;;;0.93;;
9178;SDS011;4624;48.126;11.546;2022-08-01T02:13:44;1.00;;;1.00;;
9178;SDS011;4624;48.126;11.546;2022-08-01T02:16:14;1.13;;;1.03;;
9178;SDS011;4624;48.126;11.546;2022-08-01T02:18:44;1.37;;;1.27;;
9178;SDS011;4624;48.126;11.546;2022-08-01T02:21:12;1.20;;;1.10;;
9178;SDS011;4624;48.126;11.546;2022-08-01T02:23:42;1.87;;;1.20;;
9178;SDS011;4624;48.126;11.546;2022-08-01T02:26:10;0.93;;;0.93;;
9178;SDS011;4624;48.126;11.546;2022-08-01T02:28:43;2.20;;;1.10;;
9178;SDS011;4624;48.126;11.546;2022-08-01T02:31:14;4.63;;;1.03;;
9178;SDS011;4624;48.126;11.546;2022-08-01T02:33:48;1.77;;;1.10;;
9178;SDS011;4624;48.126;11.546;2022-08-01T02:36:19;1.17;;;1.17;;
9178;SDS011;4624;48.126;11.546;2022-08-01T02:38:47;1.43;;;1.20;;
9178;SDS011;4624;48.126;11.546;2022-08-01T02:41:17;2.20;;;1.20;;
9178;SDS011;4624;48.126;11.546;2022-08-01T02:43:46;0.97;;;0.90;;
9178;SDS011;4624;48.126;11.546;2022-08-01T02:46:16;1.30;;;1.20;;
9178;SDS011;4624;48.126;11.546;2022-08-01T02:48:48;1.50;;;1.20;;
9178;SDS011;4624;48.126;11.546;2022-08-01T02:51:18;1.07;;;1.00;;
9178;SDS011;4624;48.126;11.546;2022-08-01T02:53:47;1.27;;;1.17;;
9178;SDS011;4624;48.126;11.546;2022-08-01T02:56:16;1.33;;;1.23;;
9178;SDS011;4624;48.126;11.546;2022-08-01T02:58:45;2.20;;;1.10;;
9178;SDS011;4624;48.126;11.546;2022-08-01T03:01:13;1.07;;;1.00;;
9178;SDS011;4624;48.126;11.546;2022-08-01T03:03:42;1.30;;;1.00;;
9178;SDS011;4624;48.126;11.546;2022-08-01T03:06:11;1.43;;;1.20;;
9178;SDS011;4624;48.126;11.546;2022-08-01T03:08:38;2.60;;;1.30;;
9178;SDS011;4624;48.126;11.546;2022-08-01T03:11:06;1.50;;;1.20;;
9178;SDS011;4624;48.126;11.546;2022-08-01T03:13:35;1.37;;;1.23;;
9178;SDS011;4624;48.126;11.546;2022-08-01T03:16:03;1.17;;;1.00;;
9178;SDS011;4624;48.126;11.546;2022-08-01T03:18:31;1.07;;;1.07;;
9178;SDS011;4624;48.126;11.546;2022-08-01T03:20:59;1.17;;;1.07;;
9178;SDS011;4624;48.126;11.546;2022-08-01T03:23:29;1.20;;;1.10;;
9178;SDS011;4624;48.126;11.546;2022-08-01T03:25:57;1.97;;;1.07;;
9178;SDS011;4624;48.126;11.546;2022-08-01T03:28:26;1.93;;;1.00;;
9178;SDS011;4624;48.126;11.546;2022-08-01T03:30:55;2.23;;;1.13;;
9178;SDS011;4624;48.126;11.546;2022-08-01T03:33:24;1.20;;;1.10;;
9178;SDS011;4624;48.126;11.546;2022-08-01T03:35:52;3.33;;;1.07;;
9178;SDS011;4624;48.126;11.546;2022-08-01T03:38:21;1.87;;;1.10;;
9178;SDS011;4624;48.126;11.546;2022-08-01T03:40:51;1.23;;;1.13;;
9178;SDS011;4624;48.126;11.546;2022-08-01T03:43:22;1.40;;;1.20;;
9178;SDS011;4624;48.126;11.546;2022-08-01T03:45:53;1.63;;;1.20;;
9178;SDS011;4624;48.126;11.546;2022-08-01T03:48:27;2.77;;;1.33;;
9178;SDS011;4624;48.126;11.546;2022-08-01T03:50:56;1.30;;;1.20;;
9178;SDS011;4624;48.126;11.546;2022-08-01T03:53:25;1.47;;;1.20;;
9178;SDS011;4624;48.126;11.546;2022-08-01T03:55:57;1.00;;;1.00;;
9178;SDS011;4624;48.126;11.546;2022-08-01T03:58:26;1.57;;;1.20;;
9178;SDS011;4624;48.126;11.546;2022-08-01T04:00:53;2.50;;;1.40;;
9178;SDS011;4624;48.126;11.546;2022-08-01T04:03:21;3.27;;;1.33;;
9178;SDS011;4624;48.126;11.546;2022-08-01T04:05:49;1.43;;;1.33;;
9178;SDS011;4624;48.126;11.546;2022-08-01T04:08:16;2.10;;;1.17;;
9178;SDS011;4624;48.126;11.546;2022-08-01T04:10:43;1.47;;;1.10;;
9178;SDS011;4624;48.126;11.546;2022-08-01T04:13:11;1.30;;;1.20;;
9178;SDS011;4624;48.126;11.546;2022-08-01T04:15:38;1.33;;;1.13;;
9178;SDS011;4624;48.126;11.546;2022-08-01T04:18:04;1.40;;;1.30;;
9178;SDS011;4624;48.126;11.546;2022-08-01T04:20:32;1.20;;;1.00;;
9178;SDS011;4624;48.126;11.546;2022-08-01T04:22:58;1.40;;;1.30;;
9178;SDS011;4624;48.126;11.546;2022-08-01T04:25:26;1.73;;;1.27;;
9178;SDS011;4624;48.126;11.546;2022-08-01T04:27:58;1.20;;;1.10;;
9178;SDS011;4624;48.126;11.546;2022-08-01T04:30:31;1.30;;;1.20;;
9178;SDS011;4624;48.126;11.546;2022-08-01T04:33:02;1.20;;;1.10;;
9178;SDS011;4624;48.126;11.546;2022-08-01T04:35:33;3.97;;;1.30;;
9178;SDS011;4624;48.126;11.546;2022-08-01T04:38:01;1.00;;;1.00;;
9178;SDS011;4624;48.126;11.546;2022-08-01T04:40:29;1.87;;;1.30;;
9178;SDS011;4624;48.126;11.546;2022-08-01T04:42:56;2.50;;;1.40;;
9178;SDS011;4624;48.126;11.546;2022-08-01T04:45:23;1.30;;;1.20;;
9178;SDS011;4624;48.126;11.546;2022-08-01T04:47:52;1.40;;;1.30;;
9178;SDS011;4624;48.126;11.546;2022-08-01T04:50:19;2.83;;;1.43;;
9178;SDS011;4624;48.126;11.546;2022-08-01T04:52:48;1.33;;;1.20;;
9178;SDS011;4624;48.126;11.546;2022-08-01T04:55:16;2.00;;;1.40;;
9178;SDS011;4624;48.126;11.546;2022-08-01T04:57:44;1.30;;;1.10;;
9178;SDS011;4624;48.126;11.546;2022-08-01T05:00:13;2.40;;;1.50;;
9178;SDS011;4624;48.126;11.546;2022-08-01T05:02:41;1.30;;;1.20;;
9178;SDS011;4624;48.126;11.546;2022-08-01T05:05:09;2.90;;;1.10;;
9178;SDS011;4624;48.126;11.546;2022-08-01T05:07:36;1.40;;;1.30;;
9178;SDS011;4624;48.126;11.546;2022-08-01T05:10:03;1.37;;;1.13;;
9178;SDS011;4624;48.126;11.546;2022-08-01T05:12:31;2.53;;;1.13;;
9178;SDS011;4624;48.126;11.546;2022-08-01T05:14:58;1.37;;;1.10;;
9178;SDS011;4624;48.126;11.546;2022-08-01T05:17:25;1.30;;;1.20;;
9178;SDS011;4624;48.126;11.546;2022-08-01T05:19:52;1.87;;;1.40;;
9178;SDS011;4624;48.126;11.546;2022-08-01T05:22:20;1.87;;;1.23;;
9178;SDS011;4624;48.126;11.546;2022-08-01T05:24:47;2.80;;;1.20;;
9178;SDS011;4624;48.126;11.546;2022-08-01T05:27:14;1.30;;;1.20;;
9178;SDS011;4624;48.126;11.546;2022-08-01T05:29:40;1.93;;;1.03;;
9178;SDS011;4624;48.126;11.546;2022-08-01T05:32:07;4.57;;;1.63;;
9178;SDS011;4624;48.126;11.546;2022-08-01T05:34:34;1.20;;;1.10;;
9178;SDS011;4624;48.126;11.546;2022-08-01T05:37:01;2.67;;;1.23;;
9178;SDS011;4624;48.126;11.546;2022-08-01T05:39:30;1.43;;;1.33;;
9178;SDS011;4624;48.126;11.546;2022-08-01T05:41:56;2.40;;;1.10;;
9178;SDS011;4624;48.126;11.546;2022-08-01T05:44:23;2.17;;;1.80;;
9178;SDS011;4624;48.126;11.546;2022-08-01T05:46:50;3.00;;;1.40;;
9178;SDS011;4624;48.126;11.546;2022-08-01T05:49:17;1.63;;;1.30;;
9178;SDS011;4624;48.126;11.546;2022-08-01T05:51:44;2.80;;;1.10;;
9178;SDS011;4624;48.126;11.546;2022-08-01T05:54:11;1.73;;;1.60;;
9178;SDS011;4624;48.126;11.546;2022-08-01T05:56:39;2.50;;;1.67;;
9178;SDS011;4624;48.126;11.546;2022-08-01T05:59:06;2.33;;;1.70;;
9178;SDS011;4624;48.126;11.546;2022-08-01T06:01:33;2.93;;;1.37;;
9178;SDS011;4624;48.126;11.546;2022-08-01T06:04:00;2.47;;;1.33;;
9178;SDS011;4624;48.126;11.546;2022-08-01T06:06:26;1.40;;;1.30;;
9178;SDS011;4624;48.126;11.546;2022-08-01T06:08:53;2.50;;;1.50;;
9178;SDS011;4624;48.126;11.546;2022-08-01T06:11:20;1.88;;;1.27;;
9178;SDS011;4624;48.126;11.546;2022-08-01T06:13:48;3.53;;;1.45;;
9178;SDS011;4624;48.126;11.546;2022-08-01T06:16:15;1.38;;;1.27;;
9178;SDS011;4624;48.126;11.546;2022-08-01T06:18:42;1.45;;;1.27;;
9178;SDS011;4624;48.126;11.546;2022-08-01T06:21:09;2.58;;;1.10;;
9178;SDS011;4624;48.126;11.546;2022-08-01T06:23:35;1.73;;;1.45;;
9178;SDS011;4624;48.126;11.546;2022-08-01T06:26:03;2.95;;;1.70;;
9178;SDS011;4624;48.126;11.546;2022-08-01T06:28:29;1.98;;;1.40;;
9178;SDS011;4624;48.126;11.546;2022-08-01T06:31:00;5.65;;;1.58;;
9178;SDS011;4624;48.126;11.546;2022-08-01T06:33:27;1.63;;;1.45;;
9178;SDS011;4624;48.126;11.546;2022-08-01T06:35:54;1.35;;;1.25;;
9178;SDS011;4624;48.126;11.546;2022-08-01T06:38:21;2.35;;;1.40;;
9178;SDS011;4624;48.126;11.546;2022-08-01T06:40:49;1.77;;;1.30;;
9178;SDS011;4624;48.126;11.546;2022-08-01T06:43:16;1.65;;;1.55;;
9178;SDS011;4624;48.126;11.546;2022-08-01T06:45:44;1.23;;;1.13;;
9178;SDS011;4624;48.126;11.546;2022-08-01T06:48:12;1.65;;;1.50;;
9178;SDS011;4624;48.126;11.546;2022-08-01T06:50:39;1.95;;;1.63;;
9178;SDS011;4624;48.126;11.546;2022-08-01T06:53:06;1.52;;;1.35;;
9178;SDS011;4624;48.126;11.546;2022-08-01T06:55:33;2.92;;;1.45;;
9178;SDS011;4624;48.126;11.546;2022-08-01T06:58:00;1.65;;;1.40;;
9178;SDS011;4624;48.126;11.546;2022-08-01T07:00:26;1.45;;;1.30;;
9178;SDS011;4624;48.126;11.546;2022-08-01T07:02:54;1.35;;;1.25;;
9178;SDS011;4624;48.126;11.546;2022-08-01T07:05:24;1.65;;;1.55;;
9178;SDS011;4624;48.126;11.546;2022-08-01T07:07:51;1.88;;;1.17;;
9178;SDS011;4624;48.126;11.546;2022-08-01T07:10:18;1.67;;;1.35;;
9178;SDS011;4624;48.126;11.546;2022-08-01T07:12:45;1.38;;;1.27;;
9178;SDS011;4624;48.126;11.546;2022-08-01T07:15:12;3.20;;;1.27;;
9178;SDS011;4624;48.126;11.546;2022-08-01T07:17:39;3.60;;;1.55;;
9178;SDS011;4624;48.126;11.546;2022-08-01T07:20:07;2.15;;;1.40;;
9178;SDS011;4624;48.126;11.546;2022-08-01T07:22:36;1.80;;;1.70;;
9178;SDS011;4624;48.126;11.546;2022-08-01T07:25:03;2.50;;;1.40;;
9178;SDS011;4624;48.126;11.546;2022-08-01T07:27:31;2.63;;;1.50;;
9178;SDS011;4624;48.126;11.546;2022-08-01T07:29:58;1.88;;;1.20;;
9178;SDS011;4624;48.126;11.546;2022-08-01T07:32:25;1.42;;;1.33;;
9178;SDS011;4624;48.126;11.546;2022-08-01T07:34:54;1.63;;;1.40;;
9178;SDS011;4624;48.126;11.546;2022-08-01T07:37:20;2.10;;;1.35;;
9178;SDS011;4624;48.126;11.546;2022-08-01T07:39:50;2.33;;;1.40;;
9178;SDS011;4624;48.126;11.546;2022-08-01T07:42:17;3.30;;;1.40;;
9178;SDS011;4624;48.126;11.546;2022-08-01T07:44:43;1.60;;;1.50;;
9178;SDS011;4624;48.126;11.546;2022-08-01T07:47:10;1.25;;;1.25;;
9178;SDS011;4624;48.126;11.546;2022-08-01T07:49:37;3.25;;;1.88;;
9178;SDS011;4624;48.126;11.546;2022-08-01T07:52:04;2.28;;;1.60;;
9178;SDS011;4624;48.126;11.546;2022-08-01T07:54:31;1.50;;;1.30;;
9178;SDS011;4624;48.126;11.546;2022-08-01T07:56:59;1.75;;;1.40;;
9178;SDS011;4624;48.126;11.546;2022-08-01T07:59:26;3.08;;;1.48;;
9178;SDS011;4624;48.126;11.546;2022-08-01T08:01:53;1.42;;;1.33;;
9178;SDS011;4624;48.126;11.546;2022-08-01T08:04:19;1.70;;;1.55;;
9178;SDS011;4624;48.126;11.546;2022-08-01T08:06:46;1.42;;;1.33;;
9178;SDS011;4624;48.126;11.546;2022-08-01T08:09:14;1.80;;;1.55;;
9178;SDS011;4624;48.126;11.546;2022-08-01T08:11:41;2.10;;;1.67;;
9178;SDS011;4624;48.126;11.546;2022-08-01T08:14:10;3.17;;;1.33;;
9178;SDS011;4624;48.126;11.546;2022-08-01T08:16:37;1.35;;;1.25;;
9178;SDS011;4624;48.126;11.546;2022-08-01T08:19:04;1.33;;;1.20;;
9178;SDS011;4624;48.126;11.546;2022-08-01T08:21:31;1.48;;;1.38;;
9178;SDS011;4624;48.126;11.546;2022-08-01T08:23:57;1.40;;;1.30;;
9178;SDS011;4624;48.126;11.546;2022-08-01T08:26:41;2.22;;;1.08;;
9178;SDS011;4624;48.126;11.546;2022-08-01T08:29:08;1.92;;;1.20;;
9178;SDS011;4624;48.126;11.546;2022-08-01T08:31:36;1.63;;;1.52;;
9178;SDS011;4624;48.126;11.546;2022-08-01T08:34:03;1.20;;;1.10;;
9178;SDS011;4624;48.126;11.546;2022-08-01T08:36:30;1.70;;;1.45;;
9178;SDS011;4624;48.126;11.546;2022-08-01T08:38:57;1.33;;;1.23;;
9178;SDS011;4624;48.126;11.546;2022-08-01T08:41:25;1.40;;;1.30;;
9178;SDS011;4624;48.126;11.546;2022-08-01T08:43:52;1.55;;;1.45;;
9178;SDS011;4624;48.126;11.546;2022-08-01T08:46:20;1.48;;;1.30;;
9178;SDS011;4624;48.126;11.546;2022-08-01T08:48:49;1.55;;;1.45;;
9178;SDS011;4624;48.126;11.546;2022-08-01T08:51:17;1.38;;;1.27;;
9178;SDS011;4624;48.126;11.546;2022-08-01T08:53:45;1.10;;;1.10;;
9178;SDS011;4624;48.126;11.546;2022-08-01T08:56:13;1.65;;;1.55;;
9178;SDS011;4624;48.126;11.546;2022-08-01T08:58:41;2.47;;;1.50;;
9178;SDS011;4624;48.126;11.546;2022-08-01T09:01:11;1.50;;;1.40;;
9178;SDS011;4624;48.126;11.546;2022-08-01T09:03:39;1.20;;;1.10;;
9178;SDS011;4624;48.126;11.546;2022-08-01T09:06:06;1.70;;;1.33;;
9178;SDS011;4624;48.126;11.546;2022-08-01T09:08:33;2.65;;;1.30;;
9178;SDS011;4624;48.126;11.546;2022-08-01T09:11:00;1.38;;;1.27;;
9178;SDS011;4624;48.126;11.546;2022-08-01T09:13:27;1.40;;;1.23;;
9178;SDS011;4624;48.126;11.546;2022-08-01T09:15:54;1.30;;;1.20;;
9178;SDS011;4624;48.126;11.546;2022-08-01T09:18:27;1.30;;;1.20;;
9178;SDS011;4624;48.126;11.546;2022-08-01T09:21:10;4.82;;;1.20;;
9178;SDS011;4624;48.126;11.546;2022-08-01T09:23:40;0.98;;;0.90;;
9178;SDS011;4624;48.126;11.546;2022-08-01T09:26:10;1.00;;;1.00;;
9178;SDS011;4624;48.126;11.546;2022-08-01T09:28:38;2.22;;;1.20;;
9178;SDS011;4624;48.126;11.546;2022-08-01T09:31:07;1.30;;;1.20;;
9178;SDS011;4624;48.126;11.546;2022-08-01T09:33:50;2.83;;;1.10;;
9178;SDS011;4624;48.126;11.546;2022-08-01T09:36:21;1.23;;;1.20;;
9178;SDS011;4624;48.126;11.546;2022-08-01T09:38:50;1.88;;;0.98;;
9178;SDS011;4624;48.126;11.546;2022-08-01T09:41:28;2.13;;;0.95;;
9178;SDS011;4624;48.126;11.546;2022-08-01T09:43:56;2.22;;;0.90;;
9178;SDS011;4624;48.126;11.546;2022-08-01T09:46:23;1.50;;;0.80;;
9178;SDS011;4624;48.126;11.546;2022-08-01T09:48:54;1.58;;;1.00;;
9178;SDS011;4624;48.126;11.546;2022-08-01T09:54:08;0.75;;;0.75;;
9178;SDS011;4624;48.126;11.546;2022-08-01T09:56:36;0.80;;;0.77;;
9178;SDS011;4624;48.126;11.546;2022-08-01T09:59:04;1.88;;;0.90;;
9178;SDS011;4624;48.126;11.546;2022-08-01T10:04:16;1.48;;;0.80;;
9178;SDS011;4624;48.126;11.546;2022-08-01T10:06:47;0.85;;;0.80;;
9178;SDS011;4624;48.126;11.546;2022-08-01T10:09:25;1.13;;;0.90;;
9178;SDS011;4624;48.126;11.546;2022-08-01T10:11:54;0.98;;;0.90;;
9178;SDS011;4624;48.126;11.546;2022-08-01T10:14:21;1.08;;;0.90;;
9178;SDS011;4624;48.126;11.546;2022-08-01T10:16:50;0.90;;;0.90;;
9178;SDS011;4624;48.126;11.546;2022-08-01T10:19:18;0.90;;;0.80;;
9178;SDS011;4624;48.126;11.546;2022-08-01T10:21:48;2.45;;;0.90;;
9178;SDS011;4624;48.126;11.546;2022-08-01T10:24:17;0.77;;;0.77;;
9178;SDS011;4624;48.126;11.546;2022-08-01T10:26:45;2.85;;;0.82;;
9178;SDS011;4624;48.126;11.546;2022-08-01T10:29:14;0.80;;;0.80;;
9178;SDS011;4624;48.126;11.546;2022-08-01T10:31:43;1.65;;;0.70;;
9178;SDS011;4624;48.126;11.546;2022-08-01T10:34:10;1.35;;;0.90;;
9178;SDS011;4624;48.126;11.546;2022-08-01T10:36:40;0.80;;;0.80;;
9178;SDS011;4624;48.126;11.546;2022-08-01T10:39:09;0.60;;;0.60;;
9178;SDS011;4624;48.126;11.546;2022-08-01T10:41:37;0.70;;;0.70;;
9178;SDS011;4624;48.126;11.546;2022-08-01T10:44:05;0.73;;;0.70;;
9178;SDS011;4624;48.126;11.546;2022-08-01T10:46:34;0.73;;;0.70;;
9178;SDS011;4624;48.126;11.546;2022-08-01T10:49:04;1.85;;;0.90;;
9178;SDS011;4624;48.126;11.546;2022-08-01T10:51:34;2.17;;;0.70;;
9178;SDS011;4624;48.126;11.546;2022-08-01T10:54:05;1.48;;;0.70;;
9178;SDS011;4624;48.126;11.546;2022-08-01T10:56:39;0.60;;;0.60;;
9178;SDS011;4624;48.126;11.546;2022-08-01T10:59:09;1.67;;;0.80;;
9178;SDS011;4624;48.126;11.546;2022-08-01T11:01:39;0.75;;;0.75;;
9178;SDS011;4624;48.126;11.546;2022-08-01T11:04:07;0.77;;;0.77;;
9178;SDS011;4624;48.126;11.546;2022-08-01T11:06:43;1.88;;;0.80;;
9178;SDS011;4624;48.126;11.546;2022-08-01T11:09:21;3.20;;;0.90;;
9178;SDS011;4624;48.126;11.546;2022-08-01T11:12:07;1.00;;;0.80;;
9178;SDS011;4624;48.126;11.546;2022-08-01T11:17:36;0.75;;;0.75;;
9178;SDS011;4624;48.126;11.546;2022-08-01T11:20:07;0.85;;;0.85;;
9178;SDS011;4624;48.126;11.546;2022-08-01T11:26:10;0.82;;;0.60;;
9178;SDS011;4624;48.126;11.546;2022-08-01T11:28:43;0.70;;;0.70;;
9178;SDS011;4624;48.126;11.546;2022-08-01T11:31:25;1.73;;;0.90;;
9178;SDS011;4624;48.126;11.546;2022-08-01T11:33:56;1.83;;;0.80;;
9178;SDS011;4624;48.126;11.546;2022-08-01T11:36:24;2.47;;;0.88;;
9178;SDS011;4624;48.126;11.546;2022-08-01T11:39:10;0.85;;;0.75;;
9178;SDS011;4624;48.126;11.546;2022-08-01T11:41:47;1.00;;;0.50;;
9178;SDS011;4624;48.126;11.546;2022-08-01T11:44:16;2.33;;;0.90;;
9178;SDS011;4624;48.126;11.546;2022-08-01T11:46:55;0.90;;;0.80;;
9178;SDS011;4624;48.126;11.546;2022-08-01T11:49:42;0.90;;;0.90;;
9178;SDS011;4624;48.126;11.546;2022-08-01T11:52:12;2.47;;;0.77;;
9178;SDS011;4624;48.126;11.546;2022-08-01T11:54:42;1.75;;;0.77;;
9178;SDS011;4624;48.126;11.546;2022-08-01T11:57:11;0.50;;;0.50;;
9178;SDS011;4624;48.126;11.546;2022-08-01T11:59:41;1.27;;;0.93;;
9178;SDS011;4624;48.126;11.546;2022-08-01T12:02:20;0.70;;;0.70;;
9178;SDS011;4624;48.126;11.546;2022-08-01T12:04:49;0.68;;;0.68;;
9178;SDS011;4624;48.126;11.546;2022-08-01T12:07:20;0.85;;;0.65;;
9178;SDS011;4624;48.126;11.546;2022-08-01T12:09:51;1.55;;;0.60;;
9178;SDS011;4624;48.126;11.546;2022-08-01T12:12:23;1.15;;;0.77;;
9178;SDS011;4624;48.126;11.546;2022-08-01T12:14:55;1.20;;;1.10;;
9178;SDS011;4624;48.126;11.546;2022-08-01T12:17:31;0.90;;;0.68;;
9178;SDS011;4624;48.126;11.546;2022-08-01T12:19:59;0.68;;;0.68;;
9178;SDS011;4624;48.126;11.546;2022-08-01T12:22:26;0.90;;;0.50;;
9178;SDS011;4624;48.126;11.546;2022-08-01T12:24:53;0.95;;;0.60;;
9178;SDS011;4624;48.126;11.546;2022-08-01T12:27:23;0.98;;;0.60;;
9178;SDS011;4624;48.126;11.546;2022-08-01T12:29:52;0.70;;;0.70;;
9178;SDS011;4624;48.126;11.546;2022-08-01T12:32:25;1.40;;;0.80;;
9178;SDS011;4624;48.126;11.546;2022-08-01T12:34:56;1.42;;;0.60;;
9178;SDS011;4624;48.126;11.546;2022-08-01T12:37:26;0.80;;;0.60;;
9178;SDS011;4624;48.126;11.546;2022-08-01T12:39:53;1.13;;;0.50;;
9178;SDS011;4624;48.126;11.546;2022-08-01T12:42:20;0.63;;;0.60;;
9178;SDS011;4624;48.126;11.546;2022-08-01T12:44:48;1.25;;;0.60;;
9178;SDS011;4624;48.126;11.546;2022-08-01T12:47:17;2.90;;;0.50;;
9178;SDS011;4624;48.126;11.546;2022-08-01T12:49:46;0.75;;;0.50;;
9178;SDS011;4624;48.126;11.546;2022-08-01T12:52:14;0.40;;;0.40;;
9178;SDS011;4624;48.126;11.546;2022-08-01T12:54:59;0.70;;;0.70;;
9178;SDS011;4624;48.126;11.546;2022-08-01T12:57:27;1.45;;;0.80;;
9178;SDS011;4624;48.126;11.546;2022-08-01T13:00:04;0.63;;;0.60;;
9178;SDS011;4624;48.126;11.546;2022-08-01T13:02:33;1.95;;;0.85;;
9178;SDS011;4624;48.126;11.546;2022-08-01T13:05:02;2.08;;;0.73;;
9178;SDS011;4624;48.126;11.546;2022-08-01T13:07:40;1.00;;;0.50;;
9178;SDS011;4624;48.126;11.546;2022-08-01T13:10:10;0.93;;;0.60;;
9178;SDS011;4624;48.126;11.546;2022-08-01T13:12:37;1.15;;;0.73;;
9178;SDS011;4624;48.126;11.546;2022-08-01T13:15:17;1.95;;;0.60;;
9178;SDS011;4624;48.126;11.546;2022-08-01T13:17:49;0.98;;;0.52;;
9178;SDS011;4624;48.126;11.546;2022-08-01T13:20:24;1.17;;;0.52;;
9178;SDS011;4624;48.126;11.546;2022-08-01T13:22:55;0.85;;;0.60;;
9178;SDS011;4624;48.126;11.546;2022-08-01T13:25:46;0.52;;;0.52;;
9178;SDS011;4624;48.126;11.546;2022-08-01T13:28:17;1.20;;;0.90;;
9178;SDS011;4624;48.126;11.546;2022-08-01T13:30:52;3.40;;;0.82;;
9178;SDS011;4624;48.126;11.546;2022-08-01T13:33:20;1.10;;;0.60;;
9178;SDS011;4624;48.126;11.546;2022-08-01T13:35:50;2.75;;;0.60;;
9178;SDS011;4624;48.126;11.546;2022-08-01T13:38:17;0.60;;;0.50;;
9178;SDS011;4624;48.126;11.546;2022-08-01T13:40:45;4.35;;;0.80;;
9178;SDS011;4624;48.126;11.546;2022-08-01T13:43:11;1.20;;;0.68;;
9178;SDS011;4624;48.126;11.546;2022-08-01T13:45:39;2.40;;;0.50;;
9178;SDS011;4624;48.126;11.546;2022-08-01T13:48:06;1.90;;;0.63;;
9178;SDS011;4624;48.126;11.546;2022-08-01T13:50:33;3.83;;;0.73;;
9178;SDS011;4624;48.126;11.546;2022-08-01T13:53:02;0.88;;;0.60;;
9178;SDS011;4624;48.126;11.546;2022-08-01T13:55:29;1.90;;;0.75;;
9178;SDS011;4624;48.126;11.546;2022-08-01T13:57:56;1.05;;;0.57;;
9178;SDS011;4624;48.126;11.546;2022-08-01T14:00:22;0.73;;;0.45;;
9178;SDS011;4624;48.126;11.546;2022-08-01T14:02:49;1.35;;;0.57;;
9178;SDS011;4624;48.126;11.546;2022-08-01T14:05:16;1.23;;;0.60;;
9178;SDS011;4624;48.126;11.546;2022-08-01T14:07:43;1.00;;;0.47;;
9178;SDS011;4624;48.126;11.546;2022-08-01T14:10:11;1.65;;;0.57;;
9178;SDS011;4624;48.126;11.546;2022-08-01T14:12:38;2.83;;;0.60;;
9178;SDS011;4624;48.126;11.546;2022-08-01T14:15:05;0.75;;;0.60;;
9178;SDS011;4624;48.126;11.546;2022-08-01T14:17:33;1.70;;;0.90;;
9178;SDS011;4624;48.126;11.546;2022-08-01T14:20:00;1.27;;;0.77;;
9178;SDS011;4624;48.126;11.546;2022-08-01T14:22:27;1.08;;;0.90;;
9178;SDS011;4624;48.126;11.546;2022-08-01T14:24:54;1.15;;;0.98;;
9178;SDS011;4624;48.126;11.546;2022-08-01T14:27:22;1.80;;;0.80;;
9178;SDS011;4624;48.126;11.546;2022-08-01T14:29:49;1.38;;;0.70;;
9178;SDS011;4624;48.126;11.546;2022-08-01T14:32:16;1.67;;;0.80;;
9178;SDS011;4624;48.126;11.546;2022-08-01T14:34:42;3.35;;;1.80;;
9178;SDS011;4624;48.126;11.546;2022-08-01T14:37:09;2.67;;;1.30;;
9178;SDS011;4624;48.126;11.546;2022-08-01T14:39:36;1.35;;;1.13;;
9178;SDS011;4624;48.126;11.546;2022-08-01T14:42:03;2.25;;;0.90;;
9178;SDS011;4624;48.126;11.546;2022-08-01T14:44:31;4.28;;;1.23;;
9178;SDS011;4624;48.126;11.546;2022-08-01T14:46:58;1.00;;;0.90;;
9178;SDS011;4624;48.126;11.546;2022-08-01T14:49:25;1.73;;;1.00;;
9178;SDS011;4624;48.126;11.546;2022-08-01T14:51:52;3.42;;;0.90;;
9178;SDS011;4624;48.126;11.546;2022-08-01T14:54:18;3.08;;;1.00;;
9178;SDS011;4624;48.126;11.546;2022-08-01T14:56:45;1.48;;;0.98;;
9178;SDS011;4624;48.126;11.546;2022-08-01T14:59:12;2.08;;;0.90;;
9178;SDS011;4624;48.126;11.546;2022-08-01T15:01:40;1.00;;;0.90;;
9178;SDS011;4624;48.126;11.546;2022-08-01T15:04:07;1.02;;;1.02;;
9178;SDS011;4624;48.126;11.546;2022-08-01T15:06:34;1.30;;;0.93;;
9178;SDS011;4624;48.126;11.546;2022-08-01T15:09:01;2.40;;;0.82;;
9178;SDS011;4624;48.126;11.546;2022-08-01T15:11:28;2.58;;;1.13;;
9178;SDS011;4624;48.126;11.546;2022-08-01T15:13:54;1.42;;;0.98;;
9178;SDS011;4624;48.126;11.546;2022-08-01T15:16:35;1.20;;;0.80;;
9178;SDS011;4624;48.126;11.546;2022-08-01T15:19:03;1.00;;;0.90;;
9178;SDS011;4624;48.126;11.546;2022-08-01T15:21:30;1.17;;;1.00;;
9178;SDS011;4624;48.126;11.546;2022-08-01T15:23:57;1.30;;;0.90;;